FDX508 EHAM-LFPG
Flight info
| Callsign | FDX508 |
|---|---|
| Flight time | N/A |
| Altitude | 30000 |
| Route | WOOD3W WOODY N872 DENOX DCT SISGA DCT DELOM DCT MOPIL MOPI9E |
| Aircraft | B77F/H-ICAO/L |
Departure
| Time | 2026-05-07 11:21 |
|---|---|
| Airport | Amsterdam Airport Schiphol (EHAM) |
Arrival
| Time | N/A |
|---|---|
| Airport | Charles de Gaulle International Airport (LFPG) |
| Time | Latitude | Longitude | Altitude | Speed | Heading |
|---|---|---|---|---|---|
| 2026-05-07 10:56 | 52.29474 | 4.76114 | 2 ft | 0 kts | 149° |
| 2026-05-07 11:07 | 52.29475 | 4.76113 | 3 ft | 1 kts | 149° |
| 2026-05-07 11:07 | 52.29487 | 4.76101 | 3 ft | 2 kts | 149° |
| 2026-05-07 11:08 | 52.29503 | 4.76085 | 3 ft | 3 kts | 150° |
| 2026-05-07 11:08 | 52.29522 | 4.76074 | 3 ft | 3 kts | 171° |
| 2026-05-07 11:08 | 52.29542 | 4.76074 | 3 ft | 3 kts | 192° |
| 2026-05-07 11:08 | 52.29561 | 4.76086 | 3 ft | 3 kts | 212° |
| 2026-05-07 11:09 | 52.29577 | 4.76108 | 3 ft | 3 kts | 230° |
| 2026-05-07 11:09 | 52.29584 | 4.76123 | 3 ft | 0 kts | 238° |
| 2026-05-07 11:13 | 52.29563 | 4.76065 | 3 ft | 10 kts | 240° |
| 2026-05-07 11:13 | 52.29522 | 4.75935 | 3 ft | 14 kts | 250° |
| 2026-05-07 11:14 | 52.29495 | 4.75811 | 3 ft | 10 kts | 250° |
| 2026-05-07 11:14 | 52.29473 | 4.75737 | 3 ft | 5 kts | 240° |
| 2026-05-07 11:14 | 52.29445 | 4.75654 | 3 ft | 10 kts | 243° |
| 2026-05-07 11:14 | 52.29441 | 4.75573 | 3 ft | 6 kts | 288° |
| 2026-05-07 11:15 | 52.29466 | 4.75524 | 3 ft | 10 kts | 321° |
| 2026-05-07 11:15 | 52.29530 | 4.75453 | 3 ft | 10 kts | 327° |
| 2026-05-07 11:15 | 52.29586 | 4.75395 | 3 ft | 9 kts | 328° |
| 2026-05-07 11:15 | 52.29645 | 4.75335 | 3 ft | 14 kts | 328° |
| 2026-05-07 11:16 | 52.29728 | 4.75277 | 3 ft | 11 kts | 350° |
| 2026-05-07 11:16 | 52.29795 | 4.75254 | 3 ft | 11 kts | 338° |
| 2026-05-07 11:16 | 52.29851 | 4.75172 | 3 ft | 11 kts | 310° |
| 2026-05-07 11:16 | 52.29914 | 4.75055 | 3 ft | 15 kts | 311° |
| 2026-05-07 11:17 | 52.29979 | 4.74937 | 3 ft | 13 kts | 311° |
| 2026-05-07 11:17 | 52.30038 | 4.74829 | 3 ft | 12 kts | 311° |
| 2026-05-07 11:17 | 52.30095 | 4.74724 | 3 ft | 12 kts | 311° |
| 2026-05-07 11:17 | 52.30156 | 4.74610 | 3 ft | 15 kts | 311° |
| 2026-05-07 11:18 | 52.30233 | 4.74466 | 3 ft | 18 kts | 311° |
| 2026-05-07 11:18 | 52.30306 | 4.74327 | 3 ft | 13 kts | 307° |
| 2026-05-07 11:18 | 52.30342 | 4.74196 | 3 ft | 14 kts | 273° |
| 2026-05-07 11:18 | 52.30322 | 4.74061 | 3 ft | 10 kts | 237° |
| 2026-05-07 11:19 | 52.30278 | 4.73989 | 3 ft | 9 kts | 218° |
| 2026-05-07 11:19 | 52.30231 | 4.73927 | 3 ft | 8 kts | 218° |
| 2026-05-07 11:19 | 52.30189 | 4.73836 | 3 ft | 11 kts | 265° |
| 2026-05-07 11:19 | 52.30209 | 4.73753 | 3 ft | 6 kts | 322° |
| 2026-05-07 11:20 | 52.30254 | 4.73739 | 3 ft | 5 kts | 2° |
| 2026-05-07 11:20 | 52.30256 | 4.73739 | 3 ft | 0 kts | 2° |
| 2026-05-07 11:20 | 52.30273 | 4.73740 | 3 ft | 11 kts | 2° |
| 2026-05-07 11:20 | 52.30780 | 4.73785 | 3 ft | 104 kts | 3° |
| 2026-05-07 11:21 | 52.31739 | 4.73870 | 3 ft | 170 kts | 3° |
| 2026-05-07 11:21 | 52.33047 | 4.73988 | 410 ft | 197 kts | 3° |
| 2026-05-07 11:21 | 52.33973 | 4.74101 | 1029 ft | 194 kts | 7° |
| 2026-05-07 11:21 | 52.35251 | 4.74641 | 2162 ft | 188 kts | 20° |
| 2026-05-07 11:22 | 52.36419 | 4.75690 | 2861 ft | 200 kts | 32° |
| 2026-05-07 11:22 | 52.37472 | 4.77276 | 3382 ft | 216 kts | 55° |
| 2026-05-07 11:22 | 52.37904 | 4.79666 | 3996 ft | 227 kts | 88° |
| 2026-05-07 11:22 | 52.37475 | 4.82145 | 4789 ft | 229 kts | 120° |
| 2026-05-07 11:23 | 52.36313 | 4.83923 | 5578 ft | 235 kts | 150° |
| 2026-05-07 11:23 | 52.34695 | 4.84648 | 6116 ft | 251 kts | 173° |
| 2026-05-07 11:23 | 52.32904 | 4.84792 | 6684 ft | 265 kts | 176° |
| 2026-05-07 11:23 | 52.31038 | 4.84916 | 7337 ft | 277 kts | 179° |
| 2026-05-07 11:24 | 52.29103 | 4.84902 | 8241 ft | 280 kts | 181° |
| 2026-05-07 11:24 | 52.27148 | 4.84843 | 9164 ft | 282 kts | 182° |
| 2026-05-07 11:24 | 52.25168 | 4.84788 | 10016 ft | 287 kts | 181° |
| 2026-05-07 11:24 | 52.23151 | 4.84739 | 10746 ft | 296 kts | 181° |
| 2026-05-07 11:25 | 52.21035 | 4.84689 | 11309 ft | 311 kts | 181° |
| 2026-05-07 11:25 | 52.18815 | 4.84644 | 11830 ft | 327 kts | 181° |
| 2026-05-07 11:25 | 52.16477 | 4.84597 | 12290 ft | 345 kts | 181° |
| 2026-05-07 11:25 | 52.14008 | 4.84545 | 12736 ft | 363 kts | 181° |
| 2026-05-07 11:26 | 52.11431 | 4.84493 | 13277 ft | 377 kts | 181° |
| 2026-05-07 11:26 | 52.08765 | 4.84438 | 13935 ft | 387 kts | 181° |
| 2026-05-07 11:26 | 52.06055 | 4.84368 | 14721 ft | 392 kts | 183° |
| 2026-05-07 11:26 | 52.03329 | 4.83873 | 15518 ft | 396 kts | 191° |
| 2026-05-07 11:27 | 52.00644 | 4.82818 | 16340 ft | 399 kts | 198° |
| 2026-05-07 11:27 | 51.98072 | 4.81251 | 17144 ft | 401 kts | 204° |
| 2026-05-07 11:27 | 51.95506 | 4.79416 | 17926 ft | 405 kts | 205° |
| 2026-05-07 11:27 | 51.92939 | 4.77500 | 18676 ft | 409 kts | 206° |
| 2026-05-07 11:28 | 51.90353 | 4.75503 | 19401 ft | 413 kts | 206° |
| 2026-05-07 11:28 | 51.87751 | 4.73454 | 20106 ft | 417 kts | 206° |
| 2026-05-07 11:28 | 51.85127 | 4.71384 | 20802 ft | 421 kts | 206° |
| 2026-05-07 11:28 | 51.82480 | 4.69299 | 21493 ft | 425 kts | 206° |
| 2026-05-07 11:29 | 51.79850 | 4.67232 | 22162 ft | 428 kts | 206° |
| 2026-05-07 11:29 | 51.77121 | 4.65091 | 22831 ft | 432 kts | 206° |
| 2026-05-07 11:29 | 51.74399 | 4.62959 | 23482 ft | 436 kts | 206° |
| 2026-05-07 11:29 | 51.71694 | 4.60844 | 24159 ft | 438 kts | 206° |
| 2026-05-07 11:30 | 51.68940 | 4.58685 | 24776 ft | 442 kts | 207° |
| 2026-05-07 11:30 | 51.66166 | 4.56485 | 25384 ft | 445 kts | 207° |
| 2026-05-07 11:30 | 51.63364 | 4.54286 | 25981 ft | 449 kts | 207° |
| 2026-05-07 11:30 | 51.60539 | 4.52087 | 26568 ft | 452 kts | 206° |
| 2026-05-07 11:31 | 51.57700 | 4.49886 | 27143 ft | 456 kts | 206° |
| 2026-05-07 11:31 | 51.54833 | 4.47668 | 27698 ft | 459 kts | 206° |
| 2026-05-07 11:31 | 51.51943 | 4.45434 | 28253 ft | 462 kts | 206° |
| 2026-05-07 11:31 | 51.49035 | 4.43187 | 28753 ft | 466 kts | 206° |